Time;durP1;ratioP1;P1;durP2;ratioP2;P2;SDS_P1;SDS_P2;PMS_P1;PMS_P2;Temp;Humidity;BMP_temperature;BMP_pressure;BME280_temperature;BME280_humidity;BME280_pressure;Samples;Min_cycle;Max_cycle;Signal;HPM_P1;HPM_P2
2022/01/27 00:05:34;;;;;;;18.48;8.80;;;;;;;1.27;86.09;101317.59;4502017;31;20376;-71
2022/01/27 00:08:14;;;;;;;18.35;8.75;;;;;;;1.26;85.78;101319.31;4501936;31;20122;-72
2022/01/27 00:13:15;;;;;;;18.48;8.65;;;;;;;1.16;86.51;101319.75;4501915;31;20080;-71
2022/01/27 00:15:46;;;;;;;18.55;8.40;;;;;;;1.11;86.79;101322.19;4501825;31;20494;-72
2022/01/27 00:18:17;;;;;;;24.70;9.00;;;;;;;1.18;86.44;101313.81;4501842;31;20597;-72
2022/01/27 00:20:46;;;;;;;19.62;8.15;;;;;;;1.14;86.74;101311.03;4501790;31;20091;-72
2022/01/27 00:23:14;;;;;;;16.73;7.80;;;;;;;1.11;87.06;101314.38;4501989;31;20532;-72
2022/01/27 00:25:42;;;;;;;19.27;8.32;;;;;;;1.08;87.20;101318.56;4501724;31;20459;-71
2022/01/27 00:28:09;;;;;;;17.23;8.57;;;;;;;1.18;86.65;101318.13;4501593;31;20096;-71
2022/01/27 00:30:39;;;;;;;19.62;8.55;;;;;;;1.08;86.72;101314.25;4501676;31;20117;-71
2022/01/27 00:33:07;;;;;;;16.62;8.23;;;;;;;1.12;85.92;101304.87;4501618;31;20147;-71
2022/01/27 00:35:35;;;;;;;15.63;7.28;;;;;;;1.21;84.94;101300.09;4501575;31;20119;-71
2022/01/27 00:38:02;;;;;;;20.42;8.18;;;;;;;1.28;84.50;101304.69;4501772;31;20095;-71
2022/01/27 00:40:30;;;;;;;21.73;9.05;;;;;;;1.07;85.67;101309.91;4501926;31;20110;-71
2022/01/27 00:42:58;;;;;;;23.62;9.10;;;;;;;1.05;85.99;101300.28;4501600;31;20112;-71
2022/01/27 00:45:28;;;;;;;20.10;9.25;;;;;;;1.14;85.48;101298.06;4501591;31;20175;-71
2022/01/27 00:47:56;;;;;;;19.87;7.65;;;;;;;1.16;85.42;101307.66;4501527;31;20177;-71
2022/01/27 00:50:23;;;;;;;17.45;8.40;;;;;;;1.10;85.06;101298.78;4501596;31;20092;-71
2022/01/27 00:52:54;;;;;;;20.90;8.85;;;;;;;0.98;85.68;101295.66;4501468;31;20550;-71
2022/01/27 00:55:23;;;;;;;22.75;9.07;;;;;;;0.92;85.85;101297.19;4501627;31;20084;-72
2022/01/27 01:00:34;;;;;;;22.42;8.95;;;;;;;0.95;85.72;101299.00;4501475;31;20087;-71
2022/01/27 01:03:07;;;;;;;20.40;8.32;;;;;;;0.90;86.08;101292.75;4501437;31;20080;-71
2022/01/27 01:11:28;;;;;;;21.23;9.18;;;;;;;0.68;87.23;101298.75;4501645;31;20080;-71
2022/01/27 01:32:56;;;;;;;21.50;9.95;;;;;;;0.71;87.26;101291.97;4501066;31;20096;-71
2022/01/27 01:35:29;;;;;;;23.92;10.35;;;;;;;0.78;86.61;101282.75;4501357;31;20108;-71
2022/01/27 01:37:57;;;;;;;22.70;8.90;;;;;;;0.73;86.90;101284.25;4501027;31;20114;-71
2022/01/27 01:40:25;;;;;;;24.95;9.40;;;;;;;0.77;86.64;101283.53;4501388;31;20538;-71
2022/01/27 01:42:52;;;;;;;26.25;10.38;;;;;;;0.83;86.33;101277.75;4501101;31;20084;-71
2022/01/27 01:45:20;;;;;;;25.77;9.75;;;;;;;0.92;85.67;101278.13;4501057;31;20112;-71
2022/01/27 01:47:49;;;;;;;21.98;9.55;;;;;;;0.87;85.82;101279.62;4501010;31;20172;-71
2022/01/27 01:50:16;;;;;;;26.05;9.55;;;;;;;0.78;86.17;101272.38;4500867;31;20168;-71
2022/01/27 01:52:44;;;;;;;29.45;11.07;;;;;;;0.89;85.96;101275.41;4500943;31;20100;-71
2022/01/27 01:55:12;;;;;;;26.60;10.30;;;;;;;0.94;85.50;101279.06;4500843;31;20163;-71
2022/01/27 01:57:40;;;;;;;22.65;9.57;;;;;;;0.88;85.61;101278.81;4500770;31;20126;-71
2022/01/27 02:00:09;;;;;;;19.30;9.63;;;;;;;0.78;85.98;101287.94;4500850;31;20135;-71
2022/01/27 02:02:38;;;;;;;24.90;10.40;;;;;;;0.82;85.83;101292.44;4500825;31;20114;-71
2022/01/27 02:05:06;;;;;;;27.65;10.95;;;;;;;0.90;85.35;101288.44;4500704;31;20512;-71
2022/01/27 02:07:45;;;;;;;23.05;10.15;;;;;;;0.89;85.31;101290.97;4500750;31;20104;-71
2022/01/27 02:18:08;;;;;;;27.58;10.35;;;;;;;0.85;85.45;101274.41;4500500;31;20187;-71
2022/01/27 02:20:40;;;;;;;26.50;10.38;;;;;;;0.85;85.49;101274.41;4502486;31;20156;-71
2022/01/27 02:23:10;;;;;;;28.83;10.38;;;;;;;0.88;85.38;101265.84;4502667;31;20139;-71
2022/01/27 02:25:37;;;;;;;24.98;9.85;;;;;;;0.85;85.36;101269.22;4502761;31;20131;-71
2022/01/27 02:28:05;;;;;;;23.52;10.68;;;;;;;1.05;84.92;101261.34;4502492;31;20088;-71
2022/01/27 02:30:32;;;;;;;29.25;12.02;;;;;;;0.90;85.34;101257.28;4502519;31;20100;-71
2022/01/27 02:33:00;;;;;;;26.58;11.20;;;;;;;0.92;85.37;101254.78;4502556;31;20096;-71
2022/01/27 02:35:31;;;;;;;25.73;10.18;;;;;;;0.83;85.64;101251.78;4502470;31;20111;-71
2022/01/27 02:37:58;;;;;;;22.65;10.15;;;;;;;0.91;85.63;101260.78;4502436;31;20088;-71
2022/01/27 02:40:26;;;;;;;30.35;11.43;;;;;;;0.84;85.76;101259.63;4502438;31;20119;-71
2022/01/27 02:42:54;;;;;;;28.33;10.90;;;;;;;0.92;85.56;101249.59;4502521;31;20472;-72
2022/01/27 02:45:36;;;;;;;27.33;10.43;;;;;;;0.95;85.24;101240.22;4502665;31;20141;-71
2022/01/27 02:48:03;;;;;;;22.05;10.20;;;;;;;1.01;84.83;101229.19;4502725;31;20096;-71
2022/01/27 02:50:31;;;;;;;23.08;10.27;;;;;;;0.90;84.98;101212.31;4502511;31;20096;-71
2022/01/27 02:52:58;;;;;;;24.35;10.68;;;;;;;1.01;84.62;101212.75;4502334;31;20522;-71
2022/01/27 02:55:25;;;;;;;23.95;10.40;;;;;;;0.88;85.10;101225.22;4502515;31;20104;-71
2022/01/27 02:57:55;;;;;;;26.30;10.73;;;;;;;0.83;85.23;101226.75;4502498;31;20408;-71
2022/01/27 03:00:27;;;;;;;21.05;8.27;;;;;;;1.06;84.44;101224.19;4502353;31;20119;-71
2022/01/27 03:02:54;;;;;;;20.27;8.85;;;;;;;1.10;83.84;101218.31;4502400;31;20067;-71
2022/01/27 03:05:21;;;;;;;22.27;8.88;;;;;;;1.17;83.21;101225.50;4502323;31;20092;-71
2022/01/27 03:07:49;;;;;;;21.37;9.23;;;;;;;1.07;83.03;101221.66;4502245;31;20455;-71
2022/01/27 03:10:18;;;;;;;21.60;8.65;;;;;;;1.06;83.18;101226.78;4502462;31;20439;-71
2022/01/27 03:12:49;;;;;;;17.90;8.80;;;;;;;0.97;83.31;101222.09;4502194;31;20109;-71
2022/01/27 03:15:16;;;;;;;21.23;7.90;;;;;;;0.99;83.34;101235.12;4502385;31;20114;-71
2022/01/27 03:17:43;;;;;;;22.37;9.23;;;;;;;0.99;82.64;101230.84;4502115;31;20443;-71
2022/01/27 03:20:11;;;;;;;20.42;8.80;;;;;;;1.06;82.36;101244.94;4502169;31;20112;-71
2022/01/27 03:22:38;;;;;;;17.70;7.80;;;;;;;1.12;81.46;101232.22;4502173;31;20095;-71
2022/01/27 03:25:06;;;;;;;18.83;8.02;;;;;;;1.13;81.16;101236.56;4502241;31;20435;-71
2022/01/27 03:27:34;;;;;;;20.85;8.85;;;;;;;1.24;80.76;101240.50;4502102;31;20156;-71
2022/01/27 03:30:03;;;;;;;16.87;7.87;;;;;;;1.07;81.40;101233.75;4501626;31;20103;-71
2022/01/27 03:32:30;;;;;;;19.37;8.75;;;;;;;1.04;81.40;101247.47;4501552;31;20114;-71
2022/01/27 03:34:57;;;;;;;13.23;6.72;;;;;;;1.10;81.08;101232.16;4502060;31;20114;-71
2022/01/27 03:37:24;;;;;;;15.35;8.27;;;;;;;1.21;80.72;101236.91;4502012;31;20104;-71
2022/01/27 03:39:52;;;;;;;11.20;5.00;;;;;;;1.06;81.08;101234.56;4501924;31;20126;-71
2022/01/27 03:42:19;;;;;;;14.75;6.37;;;;;;;1.13;80.20;101233.97;4502093;31;20490;-71
2022/01/27 03:44:46;;;;;;;16.77;7.55;;;;;;;1.05;80.45;101219.81;4501966;31;20088;-71
2022/01/27 03:47:13;;;;;;;17.70;8.50;;;;;;;1.09;80.41;101221.72;4502056;31;20211;-71
2022/01/27 03:49:40;;;;;;;19.77;8.05;;;;;;;1.11;80.34;101220.06;4502134;31;20222;-71
2022/01/27 03:52:08;;;;;;;22.98;9.40;;;;;;;1.14;80.17;101215.88;4502295;31;20147;-71
2022/01/27 03:54:35;;;;;;;18.95;9.27;;;;;;;1.08;80.47;101206.97;4501957;31;20452;-71
2022/01/27 03:57:02;;;;;;;16.83;7.93;;;;;;;0.97;80.30;101195.28;4487217;31;20108;-71
2022/01/27 03:59:30;;;;;;;17.65;7.50;;;;;;;1.00;80.31;101190.22;4501698;31;20502;-71
2022/01/27 04:01:57;;;;;;;16.77;8.57;;;;;;;0.81;80.89;101198.94;4501851;31;20498;-71
2022/01/27 04:04:26;;;;;;;16.98;7.97;;;;;;;0.84;80.75;101194.78;4501992;31;20147;-71
2022/01/27 04:06:54;;;;;;;17.55;8.15;;;;;;;0.73;81.35;101195.16;4502035;31;20092;-71
2022/01/27 04:09:24;;;;;;;16.95;8.00;;;;;;;0.71;81.36;101208.09;4501740;31;20092;-71
2022/01/27 04:11:52;;;;;;;20.95;8.35;;;;;;;0.79;80.73;101209.28;4502007;31;20118;-71
2022/01/27 04:14:19;;;;;;;19.05;8.90;;;;;;;0.83;80.60;101212.87;4502049;31;20756;-71
2022/01/27 04:16:46;;;;;;;18.75;8.10;;;;;;;0.75;80.84;101212.56;4501699;31;20565;-71
2022/01/27 04:19:14;;;;;;;19.10;8.85;;;;;;;0.85;80.62;101222.50;4501652;31;20099;-71
2022/01/27 04:21:41;;;;;;;15.23;8.25;;;;;;;0.76;81.00;101216.94;4501827;31;20423;-71
2022/01/27 04:24:10;;;;;;;16.70;7.97;;;;;;;0.81;81.23;101215.41;4501772;31;20148;-71
2022/01/27 04:26:44;;;;;;;18.80;7.75;;;;;;;0.89;80.64;101220.94;4501722;31;20925;-71
2022/01/27 04:29:12;;;;;;;19.23;8.45;;;;;;;0.70;81.36;101222.75;4498192;31;20461;-71
2022/01/27 04:31:42;;;;;;;22.13;9.23;;;;;;;0.87;80.74;101214.78;4486496;31;20083;-71
2022/01/27 04:34:11;;;;;;;22.95;8.68;;;;;;;0.79;81.27;101219.66;4486021;31;20088;-71
2022/01/27 04:36:40;;;;;;;17.48;8.25;;;;;;;0.74;81.40;101215.09;4485828;31;20450;-72
2022/01/27 04:39:16;;;;;;;25.67;9.38;;;;;;;0.87;80.81;101218.25;4485730;31;20100;-71
2022/01/27 04:41:56;;;;;;;20.10;8.82;;;;;;;0.86;81.05;101200.91;4485365;31;20063;-71
2022/01/27 04:44:40;;;;;;;19.70;8.32;;;;;;;0.78;81.63;101211.78;4486464;31;20171;-71
2022/01/27 04:47:13;;;;;;;22.35;9.52;;;;;;;0.85;80.91;101217.31;4486587;31;20131;-71
2022/01/27 04:49:42;;;;;;;17.08;8.35;;;;;;;0.84;80.77;101223.31;4486460;31;20187;-72
2022/01/27 04:52:09;;;;;;;17.85;8.57;;;;;;;0.80;81.15;101218.81;4486402;31;20392;-71
2022/01/27 04:54:49;;;;;;;22.00;9.32;;;;;;;0.91;80.79;101225.34;4486573;31;20121;-71
2022/01/27 04:57:17;;;;;;;19.05;8.50;;;;;;;0.89;80.93;101210.53;4471128;31;20108;-71
2022/01/27 04:59:45;;;;;;;18.23;7.62;;;;;;;0.79;81.52;101208.41;4485434;31;20100;-71
2022/01/27 05:02:24;;;;;;;24.60;8.73;;;;;;;0.85;81.03;101216.41;4485633;31;20080;-71
2022/01/27 05:04:52;;;;;;;18.35;9.05;;;;;;;0.98;80.45;101217.81;4485630;31;20101;-71
2022/01/27 05:07:39;;;;;;;23.12;9.15;;;;;;;1.00;80.06;101209.25;4485755;31;20108;-71
2022/01/27 05:10:14;;;;;;;25.02;9.20;;;;;;;0.85;81.07;101217.31;4485567;31;20130;-71
2022/01/27 05:12:49;;;;;;;28.65;9.48;;;;;;;0.80;81.05;101207.56;4485761;31;20072;-71
2022/01/27 05:15:18;;;;;;;21.42;8.95;;;;;;;0.79;81.03;101196.31;4485729;31;20104;-71
2022/01/27 05:17:45;;;;;;;22.00;9.52;;;;;;;0.85;81.09;101201.75;4485362;31;20088;-71
2022/01/27 05:20:12;;;;;;;20.58;9.35;;;;;;;0.80;81.09;101205.84;4485462;31;20684;-72
2022/01/27 05:22:39;;;;;;;21.48;9.70;;;;;;;0.84;81.19;101199.09;4485418;31;20110;-71
2022/01/27 05:25:07;;;;;;;18.05;9.10;;;;;;;0.90;80.81;101207.13;4471032;31;20140;-71
2022/01/27 05:27:34;;;;;;;19.50;8.93;;;;;;;0.84;81.03;101210.34;4485469;31;20095;-71
2022/01/27 05:30:03;;;;;;;24.33;10.68;;;;;;;0.83;81.16;101207.69;4486125;31;20153;-71
2022/01/27 05:32:30;;;;;;;24.30;10.68;;;;;;;0.87;81.19;101210.47;4486020;31;20724;-70
2022/01/27 05:34:57;;;;;;;17.50;9.35;;;;;;;0.81;81.36;101207.63;4486294;31;20539;-71
2022/01/27 05:37:24;;;;;;;19.70;9.00;;;;;;;0.97;80.86;101203.06;4486311;31;20123;-71
2022/01/27 05:39:52;;;;;;;26.42;10.57;;;;;;;0.86;81.29;101202.63;4486201;31;20532;-71
2022/01/27 05:42:19;;;;;;;21.70;10.45;;;;;;;0.93;80.75;101207.25;4485884;31;20171;-71
2022/01/27 05:44:46;;;;;;;21.98;9.68;;;;;;;0.87;81.15;101205.28;4485425;31;20111;-71
2022/01/27 05:47:14;;;;;;;27.35;9.48;;;;;;;0.81;81.49;101194.66;4485742;31;20123;-70
2022/01/27 05:49:41;;;;;;;24.27;10.75;;;;;;;0.85;81.34;101185.28;4485359;31;20084;-71
2022/01/27 05:52:09;;;;;;;28.42;10.00;;;;;;;0.85;81.57;101188.78;4485303;31;20110;-71
2022/01/27 05:54:36;;;;;;;22.48;9.95;;;;;;;0.83;81.81;101181.75;4484124;31;20438;-70
2022/01/27 05:57:03;;;;;;;21.27;9.95;;;;;;;0.91;81.66;101195.91;4485048;31;20153;-71
2022/01/27 05:59:31;;;;;;;26.48;10.73;;;;;;;0.89;81.49;101188.06;4484954;31;20153;-71
2022/01/27 06:01:58;;;;;;;22.70;10.40;;;;;;;0.87;81.81;101186.25;4485113;31;20087;-71
2022/01/27 06:04:26;;;;;;;22.13;10.23;;;;;;;0.89;81.75;101182.00;4485054;31;20108;-71
2022/01/27 06:06:53;;;;;;;26.15;11.05;;;;;;;0.89;81.67;101180.28;4485089;31;20100;-71
2022/01/27 06:09:20;;;;;;;25.12;11.65;;;;;;;0.91;81.75;101176.03;4484580;31;20428;-70
2022/01/27 06:11:48;;;;;;;23.40;10.25;;;;;;;0.84;82.24;101174.03;4484987;31;20088;-70
2022/01/27 06:14:15;;;;;;;23.80;10.05;;;;;;;0.90;82.13;101169.09;4484846;31;20564;-71
2022/01/27 06:16:45;;;;;;;23.85;10.23;;;;;;;0.88;82.31;101165.56;4484670;31;20449;-70
2022/01/27 06:19:13;;;;;;;23.25;10.63;;;;;;;0.76;83.26;101165.06;4484843;31;20127;-71
2022/01/27 06:21:43;;;;;;;25.50;11.18;;;;;;;0.82;83.23;101169.63;4484581;31;20138;-71
2022/01/27 06:24:11;;;;;;;26.55;11.12;;;;;;;0.83;83.14;101176.56;4482060;31;20481;-71
2022/01/27 06:26:38;;;;;;;28.60;11.82;;;;;;;0.74;83.77;101177.06;4483666;31;20165;-72
2022/01/27 06:29:05;;;;;;;28.73;12.82;;;;;;;0.78;83.92;101193.63;4484541;31;20096;-71
2022/01/27 06:31:32;;;;;;;35.28;12.25;;;;;;;0.77;84.06;101191.88;4483850;31;20088;-70
2022/01/27 06:34:00;;;;;;;23.10;10.63;;;;;;;0.92;83.51;101196.00;4483681;31;20167;-71
2022/01/27 06:36:27;;;;;;;28.42;12.10;;;;;;;0.90;83.49;101200.22;4495166;31;20096;-71
2022/01/27 06:38:54;;;;;;;26.42;11.20;;;;;;;0.81;83.87;101205.03;4498693;31;20523;-72
2022/01/27 06:41:22;;;;;;;26.02;11.73;;;;;;;0.85;84.03;101216.41;4499091;31;20384;-71
2022/01/27 06:43:49;;;;;;;29.33;11.95;;;;;;;0.98;83.62;101205.72;4499643;31;20563;-71
2022/01/27 06:46:16;;;;;;;27.48;11.15;;;;;;;0.86;84.00;101213.00;4499265;31;20119;-72
2022/01/27 06:48:43;;;;;;;25.05;10.55;;;;;;;0.90;83.82;101220.97;4499931;31;20543;-71
2022/01/27 06:51:10;;;;;;;27.17;12.05;;;;;;;0.99;83.60;101222.16;4499733;31;20108;-71
2022/01/27 06:53:37;;;;;;;26.73;12.30;;;;;;;1.00;83.48;101227.44;4499470;31;20080;-71
2022/01/27 06:56:06;;;;;;;31.40;11.63;;;;;;;0.97;83.68;101236.81;4499334;31;20115;-71
2022/01/27 06:58:36;;;;;;;37.55;14.38;;;;;;;1.01;83.62;101238.69;4499778;31;20155;-71
2022/01/27 07:01:03;;;;;;;23.73;10.85;;;;;;;1.03;83.49;101255.22;4499772;31;20079;-71
2022/01/27 07:03:34;;;;;;;30.62;13.95;;;;;;;1.03;83.42;101253.50;4499618;31;20079;-72
2022/01/27 07:06:01;;;;;;;30.37;13.00;;;;;;;1.02;83.38;101240.44;4501385;31;20112;-72
2022/01/27 07:08:28;;;;;;;31.60;13.60;;;;;;;1.18;82.61;101240.25;4503148;31;20095;-72
2022/01/27 07:10:56;;;;;;;26.33;12.63;;;;;;;1.03;83.28;101221.47;4502643;31;20083;-72
2022/01/27 07:13:23;;;;;;;28.62;11.68;;;;;;;1.14;82.92;101221.06;4501944;31;20087;-71
2022/01/27 07:15:50;;;;;;;27.73;11.48;;;;;;;1.24;82.57;101224.00;4501668;31;20153;-71
2022/01/27 07:18:18;;;;;;;31.20;12.15;;;;;;;1.24;82.58;101221.41;4502588;31;20136;-71
2022/01/27 07:20:45;;;;;;;31.52;12.50;;;;;;;1.27;82.39;101229.34;4502635;31;20088;-73
2022/01/27 07:23:12;;;;;;;27.35;12.25;;;;;;;1.18;82.91;101225.56;4502685;31;20709;-72
2022/01/27 07:25:40;;;;;;;25.55;11.75;;;;;;;1.15;82.94;101219.34;4502721;31;20407;-73
2022/01/27 07:28:07;;;;;;;26.92;11.95;;;;;;;1.17;82.89;101222.91;4502470;31;20099;-73
2022/01/27 07:30:34;;;;;;;26.42;11.60;;;;;;;1.30;82.18;101225.16;4502656;31;20555;-72
2022/01/27 07:33:01;;;;;;;30.00;12.95;;;;;;;1.21;82.75;101213.53;4502341;31;20506;-72
2022/01/27 07:35:28;;;;;;;27.30;11.35;;;;;;;1.26;82.34;101220.66;4502617;31;20166;-71
2022/01/27 07:37:56;;;;;;;27.08;11.27;;;;;;;1.19;82.45;101214.34;4502669;31;20125;-71
2022/01/27 07:40:24;;;;;;;30.65;11.45;;;;;;;1.13;82.60;101214.13;4486507;31;20121;-71
2022/01/27 07:43:11;;;;;;;30.95;13.23;;;;;;;1.29;81.86;101209.53;4500730;31;20117;-71
2022/01/27 07:45:38;;;;;;;28.98;12.37;;;;;;;1.39;81.65;101201.25;4499429;31;20114;-71
2022/01/27 07:48:06;;;;;;;27.33;10.90;;;;;;;1.37;81.54;101201.19;4498831;31;20305;-71
2022/01/27 07:50:33;;;;;;;23.38;11.38;;;;;;;1.29;81.60;101194.81;4500445;31;20391;-71
2022/01/27 07:53:01;;;;;;;27.83;12.68;;;;;;;1.41;81.21;101195.31;4500375;31;20504;-71
2022/01/27 07:55:28;;;;;;;25.33;10.85;;;;;;;1.45;80.76;101196.31;4501536;31;20092;-71
2022/01/27 07:57:55;;;;;;;30.27;11.65;;;;;;;1.50;80.76;101192.16;4501751;31;20096;-70
2022/01/27 08:00:22;;;;;;;24.73;11.75;;;;;;;1.51;80.45;101182.66;4501807;31;20076;-70
2022/01/27 08:02:50;;;;;;;28.77;11.20;;;;;;;1.64;79.47;101188.38;4501742;31;20418;-70
2022/01/27 08:05:17;;;;;;;27.35;11.30;;;;;;;1.48;79.93;101190.31;4492480;31;20091;-70
2022/01/27 08:07:44;;;;;;;26.77;11.35;;;;;;;1.55;79.57;101189.72;4493088;31;20732;-71
2022/01/27 08:10:12;;;;;;;27.77;11.10;;;;;;;1.75;78.43;101191.34;4491111;31;20104;-70
2022/01/27 08:12:41;;;;;;;20.23;9.80;;;;;;;1.70;78.69;101202.41;4493230;31;20093;-71
2022/01/27 08:15:12;;;;;;;20.10;9.80;;;;;;;1.82;77.82;101189.87;4477427;31;20451;-70
2022/01/27 08:17:40;;;;;;;24.12;10.38;;;;;;;1.92;77.53;101190.25;4489032;31;20123;-70
2022/01/27 08:20:08;;;;;;;39.33;13.00;;;;;;;1.91;77.57;101188.50;4485921;31;20088;-71
2022/01/27 08:22:40;;;;;;;38.17;14.13;;;;;;;2.01;77.31;101176.69;4485944;31;20156;-70
2022/01/27 08:25:07;;;;;;;75.43;19.75;;;;;;;2.14;76.16;101178.91;4484523;31;20172;-71
2022/01/27 08:27:37;;;;;;;42.70;14.90;;;;;;;2.17;76.12;101185.06;4484935;31;20092;-72
2022/01/27 08:30:05;;;;;;;32.75;12.27;;;;;;;2.30;75.33;101182.06;4485588;31;20470;-72
2022/01/27 08:32:46;;;;;;;30.95;13.68;;;;;;;2.36;74.76;101182.25;4485124;31;20084;-71
2022/01/27 08:35:19;;;;;;;23.30;10.25;;;;;;;2.52;74.88;101179.34;4486557;31;20091;-71
2022/01/27 08:37:47;;;;;;;20.25;9.63;;;;;;;2.69;73.35;101199.84;4499699;31;20091;-72
2022/01/27 08:40:16;;;;;;;24.00;10.35;;;;;;;2.75;72.87;101184.41;4500633;31;20084;-71
2022/01/27 08:43:04;;;;;;;26.90;11.23;;;;;;;2.75;73.46;101185.28;4499922;31;20111;-72
2022/01/27 08:45:31;;;;;;;23.83;11.65;;;;;;;2.79;72.66;101175.84;4499027;31;20100;-71
2022/01/27 08:47:59;;;;;;;21.90;10.10;;;;;;;2.98;72.46;101179.94;4493493;31;20091;-71
2022/01/27 08:50:28;;;;;;;24.95;11.65;;;;;;;3.36;70.78;101181.12;4493202;31;20146;-71
2022/01/27 08:52:55;;;;;;;20.37;10.15;;;;;;;3.50;70.07;101171.12;4492296;31;20087;-71
2022/01/27 08:55:22;;;;;;;18.27;9.30;;;;;;;3.74;69.31;101171.81;4492277;31;20160;-71
2022/01/27 08:57:50;;;;;;;23.98;11.30;;;;;;;4.01;68.42;101171.69;4493100;31;20160;-71
2022/01/27 09:00:21;;;;;;;23.98;10.85;;;;;;;4.39;67.74;101179.69;4493753;31;20099;-71
2022/01/27 09:02:51;;;;;;;25.45;10.00;;;;;;;4.52;66.77;101178.25;4493302;31;20645;-72
2022/01/27 09:05:19;;;;;;;19.87;9.82;;;;;;;3.84;67.36;101178.16;4491962;31;20123;-71
2022/01/27 09:07:46;;;;;;;32.22;11.52;;;;;;;3.97;68.24;101184.62;4499535;31;20498;-72
2022/01/27 09:10:15;;;;;;;20.12;8.73;;;;;;;3.96;68.21;101170.72;4501372;31;20083;-71
2022/01/27 09:12:42;;;;;;;24.77;11.43;;;;;;;4.23;66.68;101165.31;4501359;31;20084;-72
2022/01/27 09:15:10;;;;;;;22.33;9.15;;;;;;;3.90;66.86;101174.88;4500366;31;20088;-72
2022/01/27 09:17:40;;;;;;;22.73;9.48;;;;;;;3.82;67.24;101172.03;4501040;31;20087;-72
2022/01/27 09:20:09;;;;;;;21.98;9.18;;;;;;;3.67;67.48;101182.91;4501372;31;20215;-72
2022/01/27 09:22:37;;;;;;;18.67;8.82;;;;;;;3.48;68.04;101185.81;4495690;31;20095;-71
2022/01/27 09:25:43;;;;;;;21.62;10.27;;;;;;;3.66;67.96;101186.34;4494688;31;20420;-71
2022/01/27 09:28:02;;;;;;;18.70;8.77;;;;;;;3.69;68.05;101194.25;4487871;31;20130;-72
2022/01/27 09:30:29;;;;;;;23.60;9.27;;;;;;;3.99;66.81;101181.22;4494533;31;20103;-73
2022/01/27 09:32:57;;;;;;;17.08;8.25;;;;;;;4.10;66.39;101188.44;4495045;31;20096;-73
2022/01/27 09:35:27;;;;;;;24.25;10.35;;;;;;;4.13;65.61;101186.78;4490793;31;20175;-74
2022/01/27 09:37:55;;;;;;;19.20;8.45;;;;;;;4.03;66.41;101190.91;4491713;31;20134;-73
2022/01/27 09:40:22;;;;;;;20.00;9.20;;;;;;;4.09;65.85;101174.50;4490909;31;20084;-71
2022/01/27 09:42:53;;;;;;;19.90;9.45;;;;;;;4.15;65.55;101185.13;4499500;31;20110;-72
2022/01/27 09:45:22;;;;;;;26.33;9.32;;;;;;;4.10;65.73;101178.00;4501432;31;20087;-72
2022/01/27 09:48:00;;;;;;;23.17;10.35;;;;;;;4.01;65.74;101184.75;4493119;31;20199;-70
2022/01/27 09:51:24;;;;;;;18.42;8.43;;;;;;;3.80;66.08;101182.41;4483895;31;20125;-72
2022/01/27 09:53:18;;;;;;;20.52;8.70;;;;;;;3.76;66.62;101174.47;4482008;31;20092;-72
2022/01/27 09:55:45;;;;;;;17.37;8.93;;;;;;;4.03;65.31;101159.59;4498166;31;20532;-70
2022/01/27 09:58:12;;;;;;;19.83;8.50;;;;;;;4.17;64.97;101165.19;4485643;31;20104;-71
2022/01/27 10:00:40;;;;;;;16.45;8.02;;;;;;;4.34;64.64;101164.72;4484906;31;20151;-71
2022/01/27 10:03:13;;;;;;;13.68;6.87;;;;;;;4.56;63.67;101169.66;4485660;31;20139;-71
2022/01/27 10:05:43;;;;;;;17.23;7.93;;;;;;;4.57;63.00;101166.22;4487614;31;20091;-71
2022/01/27 10:08:17;;;;;;;22.67;9.85;;;;;;;4.52;63.45;101163.50;4484224;31;20133;-72
2022/01/27 10:10:47;;;;;;;20.12;9.48;;;;;;;4.45;64.64;101156.34;4484146;31;20084;-71
2022/01/27 10:13:35;;;;;;;20.23;10.13;;;;;;;4.57;65.04;101145.31;4498157;31;20669;-72
2022/01/27 10:16:02;;;;;;;;;;;;;;;4.44;63.52;101138.91;4501516;31;20578;-71
2022/01/27 10:18:34;;;;;;;18.48;7.30;;;;;;;4.13;63.83;101145.06;4496245;31;19991;-70
2022/01/27 10:21:07;;;;;;;15.85;7.85;;;;;;;4.23;64.49;101144.47;4490463;31;20149;-71
2022/01/27 10:23:38;;;;;;;13.70;6.95;;;;;;;4.54;63.45;101140.91;4491129;31;20143;-71
2022/01/27 10:26:15;;;;;;;18.17;8.55;;;;;;;4.52;62.85;101136.47;4491267;31;20126;-71
2022/01/27 10:29:08;;;;;;;16.25;7.80;;;;;;;4.62;62.62;101132.37;4493048;31;20100;-71
2022/01/27 10:31:39;;;;;;;17.12;6.97;;;;;;;4.47;62.84;101112.91;4491707;31;20083;-71
2022/01/27 10:34:10;;;;;;;19.58;8.63;;;;;;;4.72;61.51;101109.16;4479224;31;20138;-71
2022/01/27 10:36:40;;;;;;;19.33;8.55;;;;;;;4.78;62.03;101117.12;4492270;31;20104;-71
2022/01/27 10:39:09;;;;;;;21.98;8.65;;;;;;;4.69;62.18;101098.63;4491985;31;20808;-72
2022/01/27 10:41:53;;;;;;;16.87;8.00;;;;;;;4.83;62.25;101098.94;4494494;31;20104;-70
2022/01/27 10:44:23;;;;;;;24.25;8.45;;;;;;;5.17;60.56;101097.09;4494717;31;20099;-71
2022/01/27 10:47:08;;;;;;;21.08;9.68;;;;;;;5.98;58.67;101091.78;4488980;31;20129;-70
2022/01/27 10:49:42;;;;;;;19.15;8.90;;;;;;;6.72;56.47;101074.66;4486658;31;20099;-72
2022/01/27 10:52:16;;;;;;;21.15;9.60;;;;;;;7.59;53.75;101082.78;4487245;31;20076;-72
2022/01/27 10:54:55;;;;;;;19.85;8.40;;;;;;;7.90;53.12;101068.25;4487229;31;20759;-72
2022/01/27 10:57:24;;;;;;;20.17;9.68;;;;;;;8.40;50.53;101069.59;4486429;31;20534;-72
2022/01/27 11:00:15;;;;;;;19.80;9.85;;;;;;;8.40;51.75;101062.59;4486186;31;20498;-71
2022/01/27 11:02:53;;;;;;;24.67;9.85;;;;;;;7.96;51.48;101059.56;4487262;31;20096;-72
2022/01/27 11:05:24;;;;;;;21.12;10.35;;;;;;;8.93;49.78;101063.84;4490847;31;20111;-71
2022/01/27 11:07:52;;;;;;;22.10;11.00;;;;;;;9.31;47.86;101064.91;4496164;31;20156;-72
2022/01/27 11:10:25;;;;;;;21.95;11.20;;;;;;;8.60;50.04;101062.75;4495151;31;20183;-73
2022/01/27 11:12:52;;;;;;;23.20;10.80;;;;;;;9.74;47.63;101051.00;4493485;31;20104;-71
2022/01/27 11:15:20;;;;;;;23.83;12.07;;;;;;;10.11;45.88;101054.59;4494516;31;20100;-71
2022/01/27 11:17:50;;;;;;;20.20;11.77;;;;;;;9.90;47.18;101051.94;4495356;31;20107;-71
2022/01/27 11:21:28;;;;;;;20.00;10.88;;;;;;;10.37;46.03;101041.44;4498042;31;20133;-71
2022/01/27 11:26:10;;;;;;;27.75;14.32;;;;;;;10.88;43.94;101029.06;4502525;31;20148;-72
2022/01/27 11:28:42;;;;;;;27.55;13.45;;;;;;;9.76;46.76;101030.84;4499655;31;20147;-72
2022/01/27 11:31:37;;;;;;;27.58;13.25;;;;;;;9.99;45.09;101036.13;4496156;31;20100;-73
2022/01/27 11:34:07;;;;;;;29.95;14.35;;;;;;;9.14;46.46;101042.91;4485623;31;20084;-72
2022/01/27 11:36:36;;;;;;;32.20;14.38;;;;;;;10.22;45.18;101026.50;4486176;31;20126;-72
2022/01/27 11:39:11;;;;;;;32.00;14.38;;;;;;;9.91;45.61;101019.47;4485740;31;20104;-72
2022/01/27 11:41:48;;;;;;;27.48;13.85;;;;;;;9.91;45.59;101015.06;4486034;31;20088;-72
2022/01/27 11:44:36;;;;;;;26.48;13.27;;;;;;;9.87;46.62;101007.19;4485760;31;20079;-72
2022/01/27 11:47:10;;;;;;;24.30;12.02;;;;;;;9.77;46.53;101003.66;4485427;31;20542;-72
2022/01/27 11:50:01;;;;;;;25.23;12.95;;;;;;;8.29;50.08;100999.47;4490828;31;20155;-72
2022/01/27 11:52:51;;;;;;;30.58;13.70;;;;;;;9.14;48.12;101000.84;4499547;31;20443;-72
2022/01/27 11:55:24;;;;;;;25.95;12.98;;;;;;;9.47;46.97;100994.84;4500320;31;20143;-72
2022/01/27 11:57:56;;;;;;;27.52;12.68;;;;;;;9.12;49.19;100999.97;4500625;31;20088;-72
2022/01/27 12:00:26;;;;;;;25.95;13.05;;;;;;;10.24;45.80;100986.97;4500593;31;20123;-72
2022/01/27 12:02:56;;;;;;;22.62;12.80;;;;;;;10.00;45.73;100982.59;4501635;31;20091;-72
2022/01/27 12:05:26;;;;;;;23.85;11.88;;;;;;;10.26;46.00;100990.53;4500903;31;20095;-72
2022/01/27 12:08:12;;;;;;;24.48;12.85;;;;;;;10.15;45.99;100992.28;4494681;31;20119;-72
2022/01/27 12:10:40;;;;;;;21.10;12.60;;;;;;;10.86;44.93;100982.50;4487876;31;20097;-73
2022/01/27 12:19:10;;;;;;;24.77;12.57;;;;;;;11.92;43.46;100972.25;4501596;31;20076;-73
2022/01/27 12:21:42;;;;;;;23.95;12.60;;;;;;;12.26;40.47;100983.41;4499707;31;20091;-73
2022/01/27 12:24:13;;;;;;;26.42;13.45;;;;;;;12.24;41.45;100974.62;4500219;31;20096;-73
2022/01/27 12:27:04;;;;;;;25.83;13.20;;;;;;;11.16;43.71;100966.53;4500845;31;20438;-73